sensor_id;sensor_type;location;lat;lon;timestamp;P1;durP1;ratioP1;P2;durP2;ratioP2
11500;SDS011;5807;51.606;7.624;2022-09-20T00:02:01;8.20;;;3.03;;
11500;SDS011;5807;51.606;7.624;2022-09-20T00:04:28;4.20;;;2.40;;
11500;SDS011;5807;51.606;7.624;2022-09-20T00:06:54;4.90;;;2.73;;
11500;SDS011;5807;51.606;7.624;2022-09-20T00:09:23;4.13;;;2.90;;
11500;SDS011;5807;51.606;7.624;2022-09-20T00:11:49;10.73;;;3.80;;
11500;SDS011;5807;51.606;7.624;2022-09-20T00:14:17;9.77;;;3.37;;
11500;SDS011;5807;51.606;7.624;2022-09-20T00:16:43;6.63;;;2.23;;
11500;SDS011;5807;51.606;7.624;2022-09-20T00:19:14;9.60;;;3.57;;
11500;SDS011;5807;51.606;7.624;2022-09-20T00:21:43;8.10;;;2.90;;
11500;SDS011;5807;51.606;7.624;2022-09-20T00:24:10;4.57;;;2.60;;
11500;SDS011;5807;51.606;7.624;2022-09-20T00:26:38;5.97;;;2.40;;
11500;SDS011;5807;51.606;7.624;2022-09-20T00:29:08;5.33;;;2.80;;
11500;SDS011;5807;51.606;7.624;2022-09-20T00:31:35;13.73;;;3.00;;
11500;SDS011;5807;51.606;7.624;2022-09-20T00:34:04;6.33;;;2.80;;
11500;SDS011;5807;51.606;7.624;2022-09-20T00:36:48;9.53;;;3.30;;
11500;SDS011;5807;51.606;7.624;2022-09-20T00:39:15;7.53;;;3.47;;
11500;SDS011;5807;51.606;7.624;2022-09-20T00:41:44;4.97;;;3.47;;
11500;SDS011;5807;51.606;7.624;2022-09-20T00:47:12;6.43;;;2.73;;
11500;SDS011;5807;51.606;7.624;2022-09-20T00:49:47;6.87;;;2.60;;
11500;SDS011;5807;51.606;7.624;2022-09-20T00:52:15;10.23;;;3.00;;
11500;SDS011;5807;51.606;7.624;2022-09-20T00:54:42;8.93;;;3.00;;
11500;SDS011;5807;51.606;7.624;2022-09-20T00:57:11;4.83;;;2.33;;
11500;SDS011;5807;51.606;7.624;2022-09-20T00:59:38;6.83;;;3.43;;
11500;SDS011;5807;51.606;7.624;2022-09-20T01:02:10;11.40;;;3.00;;
11500;SDS011;5807;51.606;7.624;2022-09-20T01:04:41;6.13;;;2.90;;
11500;SDS011;5807;51.606;7.624;2022-09-20T01:07:09;8.33;;;3.40;;
11500;SDS011;5807;51.606;7.624;2022-09-20T01:09:38;6.73;;;3.30;;
11500;SDS011;5807;51.606;7.624;2022-09-20T01:12:06;7.33;;;3.10;;
11500;SDS011;5807;51.606;7.624;2022-09-20T01:14:39;9.33;;;3.13;;
11500;SDS011;5807;51.606;7.624;2022-09-20T01:17:08;14.80;;;4.30;;
11500;SDS011;5807;51.606;7.624;2022-09-20T01:19:37;12.70;;;4.03;;
11500;SDS011;5807;51.606;7.624;2022-09-20T01:22:13;7.47;;;3.33;;
11500;SDS011;5807;51.606;7.624;2022-09-20T01:24:47;6.90;;;3.23;;
11500;SDS011;5807;51.606;7.624;2022-09-20T01:27:22;4.10;;;3.17;;
11500;SDS011;5807;51.606;7.624;2022-09-20T01:30:04;6.83;;;3.53;;
11500;SDS011;5807;51.606;7.624;2022-09-20T01:32:35;8.80;;;3.40;;
11500;SDS011;5807;51.606;7.624;2022-09-20T01:35:10;4.23;;;2.73;;
11500;SDS011;5807;51.606;7.624;2022-09-20T01:37:41;10.13;;;3.20;;
11500;SDS011;5807;51.606;7.624;2022-09-20T01:40:17;7.03;;;3.63;;
11500;SDS011;5807;51.606;7.624;2022-09-20T01:42:55;8.33;;;3.23;;
11500;SDS011;5807;51.606;7.624;2022-09-20T01:45:27;9.37;;;3.10;;
11500;SDS011;5807;51.606;7.624;2022-09-20T01:47:58;3.63;;;3.07;;
11500;SDS011;5807;51.606;7.624;2022-09-20T01:50:35;6.07;;;3.20;;
11500;SDS011;5807;51.606;7.624;2022-09-20T01:53:31;6.80;;;3.33;;
11500;SDS011;5807;51.606;7.624;2022-09-20T01:56:18;5.83;;;3.40;;
11500;SDS011;5807;51.606;7.624;2022-09-20T02:02:05;5.90;;;3.20;;
11500;SDS011;5807;51.606;7.624;2022-09-20T02:04:38;5.53;;;2.43;;
11500;SDS011;5807;51.606;7.624;2022-09-20T02:07:48;4.73;;;2.37;;
11500;SDS011;5807;51.606;7.624;2022-09-20T02:10:46;6.07;;;2.90;;
11500;SDS011;5807;51.606;7.624;2022-09-20T02:13:57;9.00;;;3.37;;
11500;SDS011;5807;51.606;7.624;2022-09-20T02:16:44;5.87;;;3.37;;
11500;SDS011;5807;51.606;7.624;2022-09-20T02:19:20;6.30;;;3.37;;
11500;SDS011;5807;51.606;7.624;2022-09-20T02:25:07;13.33;;;3.97;;
11500;SDS011;5807;51.606;7.624;2022-09-20T02:27:44;7.10;;;3.80;;
11500;SDS011;5807;51.606;7.624;2022-09-20T02:30:24;5.80;;;3.10;;
11500;SDS011;5807;51.606;7.624;2022-09-20T02:33:05;7.33;;;3.30;;
11500;SDS011;5807;51.606;7.624;2022-09-20T02:35:40;5.17;;;3.53;;
11500;SDS011;5807;51.606;7.624;2022-09-20T02:38:20;6.13;;;3.30;;
11500;SDS011;5807;51.606;7.624;2022-09-20T02:43:54;13.43;;;3.50;;
11500;SDS011;5807;51.606;7.624;2022-09-20T02:46:27;13.67;;;3.30;;
11500;SDS011;5807;51.606;7.624;2022-09-20T02:49:01;12.50;;;3.27;;
11500;SDS011;5807;51.606;7.624;2022-09-20T02:51:35;7.67;;;3.40;;
11500;SDS011;5807;51.606;7.624;2022-09-20T02:54:10;4.00;;;3.30;;
11500;SDS011;5807;51.606;7.624;2022-09-20T02:56:45;8.77;;;3.80;;
11500;SDS011;5807;51.606;7.624;2022-09-20T02:59:20;6.07;;;3.47;;
11500;SDS011;5807;51.606;7.624;2022-09-20T03:01:58;10.87;;;3.90;;
11500;SDS011;5807;51.606;7.624;2022-09-20T03:04:36;9.07;;;3.93;;
11500;SDS011;5807;51.606;7.624;2022-09-20T03:07:11;5.93;;;3.60;;
11500;SDS011;5807;51.606;7.624;2022-09-20T03:09:46;6.33;;;3.10;;
11500;SDS011;5807;51.606;7.624;2022-09-20T03:12:25;11.97;;;3.60;;
11500;SDS011;5807;51.606;7.624;2022-09-20T03:15:04;10.07;;;3.70;;
11500;SDS011;5807;51.606;7.624;2022-09-20T03:17:44;9.53;;;3.60;;
11500;SDS011;5807;51.606;7.624;2022-09-20T03:20:20;5.67;;;3.40;;
11500;SDS011;5807;51.606;7.624;2022-09-20T03:22:57;6.60;;;4.43;;
11500;SDS011;5807;51.606;7.624;2022-09-20T03:25:34;11.30;;;3.70;;
11500;SDS011;5807;51.606;7.624;2022-09-20T03:28:10;5.50;;;3.60;;
11500;SDS011;5807;51.606;7.624;2022-09-20T03:30:51;9.53;;;3.90;;
11500;SDS011;5807;51.606;7.624;2022-09-20T03:33:28;8.40;;;3.93;;
11500;SDS011;5807;51.606;7.624;2022-09-20T03:36:09;5.10;;;3.50;;
11500;SDS011;5807;51.606;7.624;2022-09-20T03:39:07;6.73;;;3.87;;
11500;SDS011;5807;51.606;7.624;2022-09-20T03:41:51;5.43;;;3.77;;
11500;SDS011;5807;51.606;7.624;2022-09-20T03:47:50;6.63;;;3.67;;
11500;SDS011;5807;51.606;7.624;2022-09-20T03:50:40;8.37;;;5.07;;
11500;SDS011;5807;51.606;7.624;2022-09-20T03:53:17;14.60;;;3.93;;
11500;SDS011;5807;51.606;7.624;2022-09-20T03:58:58;41.40;;;7.87;;
11500;SDS011;5807;51.606;7.624;2022-09-20T04:01:41;6.40;;;4.17;;
11500;SDS011;5807;51.606;7.624;2022-09-20T04:04:27;10.53;;;4.57;;
11500;SDS011;5807;51.606;7.624;2022-09-20T04:07:04;7.70;;;4.63;;
11500;SDS011;5807;51.606;7.624;2022-09-20T04:10:02;13.30;;;4.70;;
11500;SDS011;5807;51.606;7.624;2022-09-20T04:12:40;10.20;;;4.40;;
11500;SDS011;5807;51.606;7.624;2022-09-20T04:15:17;8.57;;;4.47;;
11500;SDS011;5807;51.606;7.624;2022-09-20T04:17:56;11.50;;;4.53;;
11500;SDS011;5807;51.606;7.624;2022-09-20T04:20:30;14.37;;;4.60;;
11500;SDS011;5807;51.606;7.624;2022-09-20T04:23:07;10.67;;;4.60;;
11500;SDS011;5807;51.606;7.624;2022-09-20T04:25:46;9.23;;;4.83;;
11500;SDS011;5807;51.606;7.624;2022-09-20T04:28:16;8.57;;;4.60;;
11500;SDS011;5807;51.606;7.624;2022-09-20T04:30:47;8.90;;;5.30;;
11500;SDS011;5807;51.606;7.624;2022-09-20T04:33:17;10.10;;;4.80;;
11500;SDS011;5807;51.606;7.624;2022-09-20T04:35:50;10.17;;;4.63;;
11500;SDS011;5807;51.606;7.624;2022-09-20T04:38:43;8.47;;;4.40;;
11500;SDS011;5807;51.606;7.624;2022-09-20T04:41:24;9.27;;;4.73;;
11500;SDS011;5807;51.606;7.624;2022-09-20T04:44:20;11.23;;;5.00;;
11500;SDS011;5807;51.606;7.624;2022-09-20T04:47:06;12.63;;;5.00;;
11500;SDS011;5807;51.606;7.624;2022-09-20T04:50:07;13.33;;;5.67;;
11500;SDS011;5807;51.606;7.624;2022-09-20T04:53:07;12.23;;;5.60;;
11500;SDS011;5807;51.606;7.624;2022-09-20T04:55:54;10.20;;;5.80;;
11500;SDS011;5807;51.606;7.624;2022-09-20T05:01:38;10.83;;;6.47;;
11500;SDS011;5807;51.606;7.624;2022-09-20T05:04:45;11.20;;;5.47;;
11500;SDS011;5807;51.606;7.624;2022-09-20T05:07:43;8.83;;;5.87;;
11500;SDS011;5807;51.606;7.624;2022-09-20T05:13:59;12.13;;;5.90;;
11500;SDS011;5807;51.606;7.624;2022-09-20T05:16:53;9.57;;;5.70;;
11500;SDS011;5807;51.606;7.624;2022-09-20T05:19:35;8.67;;;5.90;;
11500;SDS011;5807;51.606;7.624;2022-09-20T05:22:16;11.63;;;5.30;;
11500;SDS011;5807;51.606;7.624;2022-09-20T05:25:02;6.87;;;5.77;;
11500;SDS011;5807;51.606;7.624;2022-09-20T05:27:40;8.23;;;5.13;;
11500;SDS011;5807;51.606;7.624;2022-09-20T05:30:18;9.90;;;5.77;;
11500;SDS011;5807;51.606;7.624;2022-09-20T05:32:51;12.50;;;6.00;;
11500;SDS011;5807;51.606;7.624;2022-09-20T05:35:28;12.13;;;6.03;;
11500;SDS011;5807;51.606;7.624;2022-09-20T05:38:00;12.13;;;6.73;;
11500;SDS011;5807;51.606;7.624;2022-09-20T05:40:35;11.27;;;5.90;;
11500;SDS011;5807;51.606;7.624;2022-09-20T05:43:12;14.40;;;6.80;;
11500;SDS011;5807;51.606;7.624;2022-09-20T05:45:56;15.40;;;7.40;;
11500;SDS011;5807;51.606;7.624;2022-09-20T05:48:33;15.87;;;7.47;;
11500;SDS011;5807;51.606;7.624;2022-09-20T05:51:25;13.47;;;7.07;;
11500;SDS011;5807;51.606;7.624;2022-09-20T05:56:54;10.60;;;7.13;;
11500;SDS011;5807;51.606;7.624;2022-09-20T05:59:32;18.90;;;7.83;;
11500;SDS011;5807;51.606;7.624;2022-09-20T06:02:19;13.77;;;7.10;;
11500;SDS011;5807;51.606;7.624;2022-09-20T06:04:58;16.23;;;7.20;;
11500;SDS011;5807;51.606;7.624;2022-09-20T06:07:31;14.53;;;7.63;;
11500;SDS011;5807;51.606;7.624;2022-09-20T06:10:19;15.63;;;7.37;;
11500;SDS011;5807;51.606;7.624;2022-09-20T06:13:10;14.13;;;7.30;;
11500;SDS011;5807;51.606;7.624;2022-09-20T06:15:55;14.83;;;6.93;;
11500;SDS011;5807;51.606;7.624;2022-09-20T06:18:28;15.63;;;8.83;;
11500;SDS011;5807;51.606;7.624;2022-09-20T06:21:03;19.80;;;8.57;;
11500;SDS011;5807;51.606;7.624;2022-09-20T06:23:38;20.20;;;7.77;;
11500;SDS011;5807;51.606;7.624;2022-09-20T06:26:06;19.23;;;7.53;;
11500;SDS011;5807;51.606;7.624;2022-09-20T06:28:39;15.83;;;8.00;;
11500;SDS011;5807;51.606;7.624;2022-09-20T06:31:08;17.67;;;8.13;;
11500;SDS011;5807;51.606;7.624;2022-09-20T06:33:41;16.33;;;8.77;;
11500;SDS011;5807;51.606;7.624;2022-09-20T06:36:11;15.57;;;8.30;;
11500;SDS011;5807;51.606;7.624;2022-09-20T06:39:00;18.60;;;8.67;;
11500;SDS011;5807;51.606;7.624;2022-09-20T06:41:48;14.03;;;8.20;;
11500;SDS011;5807;51.606;7.624;2022-09-20T06:44:15;15.93;;;7.40;;
11500;SDS011;5807;51.606;7.624;2022-09-20T06:46:57;21.77;;;8.63;;
11500;SDS011;5807;51.606;7.624;2022-09-20T06:49:26;18.27;;;8.53;;
11500;SDS011;5807;51.606;7.624;2022-09-20T06:51:53;13.57;;;8.30;;
11500;SDS011;5807;51.606;7.624;2022-09-20T06:54:20;17.20;;;7.83;;
11500;SDS011;5807;51.606;7.624;2022-09-20T06:56:48;14.63;;;7.20;;
11500;SDS011;5807;51.606;7.624;2022-09-20T06:59:16;10.57;;;6.73;;
11500;SDS011;5807;51.606;7.624;2022-09-20T07:01:43;14.00;;;6.17;;
11500;SDS011;5807;51.606;7.624;2022-09-20T07:04:10;11.00;;;6.33;;
11500;SDS011;5807;51.606;7.624;2022-09-20T07:06:38;11.60;;;5.20;;
11500;SDS011;5807;51.606;7.624;2022-09-20T07:09:06;9.53;;;6.10;;
11500;SDS011;5807;51.606;7.624;2022-09-20T07:11:32;8.77;;;5.27;;
11500;SDS011;5807;51.606;7.624;2022-09-20T07:13:59;11.50;;;5.47;;
11500;SDS011;5807;51.606;7.624;2022-09-20T07:16:27;8.10;;;4.63;;
11500;SDS011;5807;51.606;7.624;2022-09-20T07:18:53;8.47;;;4.10;;
11500;SDS011;5807;51.606;7.624;2022-09-20T07:21:21;9.57;;;4.53;;
11500;SDS011;5807;51.606;7.624;2022-09-20T07:23:49;8.03;;;4.33;;
11500;SDS011;5807;51.606;7.624;2022-09-20T07:26:18;5.70;;;3.93;;
11500;SDS011;5807;51.606;7.624;2022-09-20T07:28:46;6.23;;;3.80;;
11500;SDS011;5807;51.606;7.624;2022-09-20T07:31:14;8.93;;;4.50;;
11500;SDS011;5807;51.606;7.624;2022-09-20T07:33:41;8.53;;;3.87;;
11500;SDS011;5807;51.606;7.624;2022-09-20T07:36:09;5.57;;;3.90;;
11500;SDS011;5807;51.606;7.624;2022-09-20T07:38:37;9.27;;;4.00;;
11500;SDS011;5807;51.606;7.624;2022-09-20T07:41:05;9.80;;;3.23;;
11500;SDS011;5807;51.606;7.624;2022-09-20T07:43:33;6.57;;;3.40;;
11500;SDS011;5807;51.606;7.624;2022-09-20T07:45:59;4.60;;;2.93;;
11500;SDS011;5807;51.606;7.624;2022-09-20T07:48:28;8.00;;;3.27;;
11500;SDS011;5807;51.606;7.624;2022-09-20T07:50:57;6.23;;;2.77;;
11500;SDS011;5807;51.606;7.624;2022-09-20T07:53:26;5.70;;;2.43;;
11500;SDS011;5807;51.606;7.624;2022-09-20T07:55:57;4.80;;;2.40;;
11500;SDS011;5807;51.606;7.624;2022-09-20T07:58:26;8.47;;;3.30;;
11500;SDS011;5807;51.606;7.624;2022-09-20T08:00:54;6.10;;;2.77;;
11500;SDS011;5807;51.606;7.624;2022-09-20T08:03:23;5.53;;;2.73;;
11500;SDS011;5807;51.606;7.624;2022-09-20T08:05:50;9.57;;;2.53;;
11500;SDS011;5807;51.606;7.624;2022-09-20T08:08:18;5.70;;;2.40;;
11500;SDS011;5807;51.606;7.624;2022-09-20T08:10:45;5.63;;;2.23;;
11500;SDS011;5807;51.606;7.624;2022-09-20T08:13:12;4.23;;;2.40;;
11500;SDS011;5807;51.606;7.624;2022-09-20T08:15:41;4.37;;;2.07;;
11500;SDS011;5807;51.606;7.624;2022-09-20T08:18:08;3.87;;;2.10;;
11500;SDS011;5807;51.606;7.624;2022-09-20T08:20:36;3.10;;;1.70;;
11500;SDS011;5807;51.606;7.624;2022-09-20T08:23:03;5.77;;;2.00;;
11500;SDS011;5807;51.606;7.624;2022-09-20T08:25:30;5.47;;;2.10;;
11500;SDS011;5807;51.606;7.624;2022-09-20T08:27:57;6.77;;;2.27;;
11500;SDS011;5807;51.606;7.624;2022-09-20T08:30:24;3.13;;;1.80;;
11500;SDS011;5807;51.606;7.624;2022-09-20T08:32:52;4.90;;;2.23;;
11500;SDS011;5807;51.606;7.624;2022-09-20T08:35:19;6.30;;;2.17;;
11500;SDS011;5807;51.606;7.624;2022-09-20T08:37:46;3.83;;;1.83;;
11500;SDS011;5807;51.606;7.624;2022-09-20T08:40:17;3.93;;;2.20;;
11500;SDS011;5807;51.606;7.624;2022-09-20T08:42:45;5.57;;;1.90;;
11500;SDS011;5807;51.606;7.624;2022-09-20T08:45:13;2.50;;;1.87;;
11500;SDS011;5807;51.606;7.624;2022-09-20T08:47:45;5.03;;;2.23;;
11500;SDS011;5807;51.606;7.624;2022-09-20T08:50:16;5.87;;;1.70;;
11500;SDS011;5807;51.606;7.624;2022-09-20T08:52:44;4.37;;;1.93;;
11500;SDS011;5807;51.606;7.624;2022-09-20T08:55:13;1.87;;;1.77;;
11500;SDS011;5807;51.606;7.624;2022-09-20T08:57:51;3.27;;;1.70;;
11500;SDS011;5807;51.606;7.624;2022-09-20T09:00:20;2.23;;;1.50;;
11500;SDS011;5807;51.606;7.624;2022-09-20T09:02:48;4.03;;;1.80;;
11500;SDS011;5807;51.606;7.624;2022-09-20T09:05:29;2.20;;;1.60;;
11500;SDS011;5807;51.606;7.624;2022-09-20T09:07:57;1.60;;;1.30;;
11500;SDS011;5807;51.606;7.624;2022-09-20T09:10:26;3.13;;;2.03;;
11500;SDS011;5807;51.606;7.624;2022-09-20T09:12:56;2.90;;;1.30;;
11500;SDS011;5807;51.606;7.624;2022-09-20T09:15:26;5.80;;;1.47;;
11500;SDS011;5807;51.606;7.624;2022-09-20T09:17:56;7.40;;;1.90;;
11500;SDS011;5807;51.606;7.624;2022-09-20T09:20:23;3.47;;;1.73;;
11500;SDS011;5807;51.606;7.624;2022-09-20T09:22:58;4.57;;;1.37;;
11500;SDS011;5807;51.606;7.624;2022-09-20T09:25:27;1.30;;;1.20;;
11500;SDS011;5807;51.606;7.624;2022-09-20T09:28:00;3.97;;;1.70;;
11500;SDS011;5807;51.606;7.624;2022-09-20T09:33:36;4.10;;;1.60;;
11500;SDS011;5807;51.606;7.624;2022-09-20T09:36:11;3.40;;;1.70;;
11500;SDS011;5807;51.606;7.624;2022-09-20T09:38:42;3.77;;;1.17;;
11500;SDS011;5807;51.606;7.624;2022-09-20T09:41:20;4.43;;;1.73;;
11500;SDS011;5807;51.606;7.624;2022-09-20T09:43:57;4.93;;;2.07;;
11500;SDS011;5807;51.606;7.624;2022-09-20T09:46:25;1.90;;;1.30;;
11500;SDS011;5807;51.606;7.624;2022-09-20T09:49:03;1.70;;;1.60;;
11500;SDS011;5807;51.606;7.624;2022-09-20T09:51:33;4.33;;;1.60;;
11500;SDS011;5807;51.606;7.624;2022-09-20T09:54:02;2.43;;;1.40;;
11500;SDS011;5807;51.606;7.624;2022-09-20T09:56:41;3.13;;;1.33;;
11500;SDS011;5807;51.606;7.624;2022-09-20T09:59:29;1.43;;;1.23;;
11500;SDS011;5807;51.606;7.624;2022-09-20T10:02:13;2.83;;;1.67;;
11500;SDS011;5807;51.606;7.624;2022-09-20T10:04:55;3.27;;;1.70;;
11500;SDS011;5807;51.606;7.624;2022-09-20T10:07:30;3.87;;;1.43;;
11500;SDS011;5807;51.606;7.624;2022-09-20T10:10:06;3.13;;;1.40;;
11500;SDS011;5807;51.606;7.624;2022-09-20T10:12:49;4.23;;;1.63;;
11500;SDS011;5807;51.606;7.624;2022-09-20T10:15:28;4.83;;;1.73;;
11500;SDS011;5807;51.606;7.624;2022-09-20T10:18:03;2.07;;;1.10;;
11500;SDS011;5807;51.606;7.624;2022-09-20T10:20:53;4.30;;;1.30;;
11500;SDS011;5807;51.606;7.624;2022-09-20T10:23:39;1.63;;;1.07;;
11500;SDS011;5807;51.606;7.624;2022-09-20T10:26:22;2.00;;;1.60;;
11500;SDS011;5807;51.606;7.624;2022-09-20T10:29:04;3.27;;;1.57;;
11500;SDS011;5807;51.606;7.624;2022-09-20T10:31:43;3.83;;;1.67;;
11500;SDS011;5807;51.606;7.624;2022-09-20T10:34:32;1.70;;;1.40;;
11500;SDS011;5807;51.606;7.624;2022-09-20T10:37:16;3.80;;;1.57;;
11500;SDS011;5807;51.606;7.624;2022-09-20T10:39:51;4.07;;;1.70;;
11500;SDS011;5807;51.606;7.624;2022-09-20T10:42:29;4.37;;;1.40;;
11500;SDS011;5807;51.606;7.624;2022-09-20T10:45:22;3.40;;;1.40;;
11500;SDS011;5807;51.606;7.624;2022-09-20T10:47:58;1.13;;;1.10;;
11500;SDS011;5807;51.606;7.624;2022-09-20T10:50:29;1.60;;;1.20;;
11500;SDS011;5807;51.606;7.624;2022-09-20T10:53:07;2.20;;;1.40;;
11500;SDS011;5807;51.606;7.624;2022-09-20T10:55:45;2.30;;;2.03;;
11500;SDS011;5807;51.606;7.624;2022-09-20T11:01:26;1.63;;;1.20;;
11500;SDS011;5807;51.606;7.624;2022-09-20T11:04:00;2.87;;;1.10;;
11500;SDS011;5807;51.606;7.624;2022-09-20T11:06:49;2.70;;;1.10;;
11500;SDS011;5807;51.606;7.624;2022-09-20T11:09:22;2.43;;;1.10;;
11500;SDS011;5807;51.606;7.624;2022-09-20T11:11:53;1.73;;;1.37;;
11500;SDS011;5807;51.606;7.624;2022-09-20T11:14:29;3.17;;;1.20;;
11500;SDS011;5807;51.606;7.624;2022-09-20T11:17:02;1.93;;;1.30;;
11500;SDS011;5807;51.606;7.624;2022-09-20T11:19:36;4.43;;;1.33;;
11500;SDS011;5807;51.606;7.624;2022-09-20T11:22:14;1.93;;;1.30;;
11500;SDS011;5807;51.606;7.624;2022-09-20T11:24:45;2.90;;;0.90;;
11500;SDS011;5807;51.606;7.624;2022-09-20T11:27:16;2.00;;;1.00;;
11500;SDS011;5807;51.606;7.624;2022-09-20T11:29:49;1.20;;;1.10;;
11500;SDS011;5807;51.606;7.624;2022-09-20T11:32:21;2.03;;;1.20;;
11500;SDS011;5807;51.606;7.624;2022-09-20T11:34:53;3.47;;;1.20;;
11500;SDS011;5807;51.606;7.624;2022-09-20T11:37:23;4.87;;;1.37;;
11500;SDS011;5807;51.606;7.624;2022-09-20T11:39:54;7.70;;;1.50;;
11500;SDS011;5807;51.606;7.624;2022-09-20T11:42:22;2.03;;;1.33;;
11500;SDS011;5807;51.606;7.624;2022-09-20T11:44:55;2.10;;;1.00;;
11500;SDS011;5807;51.606;7.624;2022-09-20T11:47:37;0.90;;;0.90;;
11500;SDS011;5807;51.606;7.624;2022-09-20T11:50:18;2.73;;;1.37;;
11500;SDS011;5807;51.606;7.624;2022-09-20T11:53:13;0.87;;;0.87;;
11500;SDS011;5807;51.606;7.624;2022-09-20T11:55:49;5.73;;;1.53;;
11500;SDS011;5807;51.606;7.624;2022-09-20T11:58:23;2.00;;;1.03;;
11500;SDS011;5807;51.606;7.624;2022-09-20T12:00:53;1.43;;;1.10;;
11500;SDS011;5807;51.606;7.624;2022-09-20T12:03:24;4.87;;;1.47;;
11500;SDS011;5807;51.606;7.624;2022-09-20T12:05:56;6.00;;;1.50;;
11500;SDS011;5807;51.606;7.624;2022-09-20T12:08:25;3.40;;;1.57;;
11500;SDS011;5807;51.606;7.624;2022-09-20T12:10:56;2.90;;;1.30;;
11500;SDS011;5807;51.606;7.624;2022-09-20T12:13:25;2.27;;;1.30;;
11500;SDS011;5807;51.606;7.624;2022-09-20T12:16:01;3.07;;;1.50;;
11500;SDS011;5807;51.606;7.624;2022-09-20T12:18:45;2.87;;;1.40;;
11500;SDS011;5807;51.606;7.624;2022-09-20T12:24:42;3.93;;;1.57;;
11500;SDS011;5807;51.606;7.624;2022-09-20T12:27:19;2.70;;;1.30;;
11500;SDS011;5807;51.606;7.624;2022-09-20T12:30:14;1.50;;;1.23;;
11500;SDS011;5807;51.606;7.624;2022-09-20T12:32:46;16.23;;;2.33;;
11500;SDS011;5807;51.606;7.624;2022-09-20T12:38:30;2.00;;;1.33;;
11500;SDS011;5807;51.606;7.624;2022-09-20T12:41:00;1.10;;;1.10;;
11500;SDS011;5807;51.606;7.624;2022-09-20T12:43:29;2.03;;;1.20;;
11500;SDS011;5807;51.606;7.624;2022-09-20T12:45:58;2.27;;;1.30;;
11500;SDS011;5807;51.606;7.624;2022-09-20T12:48:28;3.23;;;1.20;;
11500;SDS011;5807;51.606;7.624;2022-09-20T12:51:16;3.50;;;1.13;;
11500;SDS011;5807;51.606;7.624;2022-09-20T12:54:05;1.23;;;1.07;;
11500;SDS011;5807;51.606;7.624;2022-09-20T12:56:35;2.67;;;1.10;;
11500;SDS011;5807;51.606;7.624;2022-09-20T12:59:04;1.00;;;0.90;;
11500;SDS011;5807;51.606;7.624;2022-09-20T13:01:45;2.07;;;0.90;;
11500;SDS011;5807;51.606;7.624;2022-09-20T13:07:34;3.53;;;1.10;;
11500;SDS011;5807;51.606;7.624;2022-09-20T13:10:19;2.90;;;1.40;;
11500;SDS011;5807;51.606;7.624;2022-09-20T13:12:53;3.87;;;1.37;;
11500;SDS011;5807;51.606;7.624;2022-09-20T13:15:24;3.23;;;1.67;;
11500;SDS011;5807;51.606;7.624;2022-09-20T13:17:51;4.60;;;1.10;;
11500;SDS011;5807;51.606;7.624;2022-09-20T13:20:22;1.70;;;1.20;;
11500;SDS011;5807;51.606;7.624;2022-09-20T13:22:53;1.93;;;0.97;;
11500;SDS011;5807;51.606;7.624;2022-09-20T13:25:20;2.17;;;1.20;;
11500;SDS011;5807;51.606;7.624;2022-09-20T13:27:49;5.10;;;1.10;;
11500;SDS011;5807;51.606;7.624;2022-09-20T13:30:23;0.80;;;0.80;;
11500;SDS011;5807;51.606;7.624;2022-09-20T13:32:52;1.60;;;1.30;;
11500;SDS011;5807;51.606;7.624;2022-09-20T13:35:20;3.77;;;1.60;;
11500;SDS011;5807;51.606;7.624;2022-09-20T13:37:53;4.80;;;1.00;;
11500;SDS011;5807;51.606;7.624;2022-09-20T13:40:23;1.30;;;1.03;;
11500;SDS011;5807;51.606;7.624;2022-09-20T13:42:57;0.80;;;0.80;;
11500;SDS011;5807;51.606;7.624;2022-09-20T13:45:26;5.07;;;1.30;;
11500;SDS011;5807;51.606;7.624;2022-09-20T13:47:54;5.07;;;1.63;;
11500;SDS011;5807;51.606;7.624;2022-09-20T13:50:26;0.83;;;0.83;;
11500;SDS011;5807;51.606;7.624;2022-09-20T13:52:57;2.17;;;1.00;;
11500;SDS011;5807;51.606;7.624;2022-09-20T13:55:29;3.57;;;1.10;;
11500;SDS011;5807;51.606;7.624;2022-09-20T13:57:58;0.90;;;0.90;;
11500;SDS011;5807;51.606;7.624;2022-09-20T14:00:28;4.57;;;1.00;;
11500;SDS011;5807;51.606;7.624;2022-09-20T14:02:56;2.10;;;1.40;;
11500;SDS011;5807;51.606;7.624;2022-09-20T14:05:25;2.70;;;1.00;;
11500;SDS011;5807;51.606;7.624;2022-09-20T14:07:54;1.40;;;0.80;;
11500;SDS011;5807;51.606;7.624;2022-09-20T14:10:30;2.43;;;1.00;;
11500;SDS011;5807;51.606;7.624;2022-09-20T14:13:00;1.23;;;0.73;;
11500;SDS011;5807;51.606;7.624;2022-09-20T14:15:32;7.13;;;1.50;;
11500;SDS011;5807;51.606;7.624;2022-09-20T14:18:10;1.13;;;0.90;;
11500;SDS011;5807;51.606;7.624;2022-09-20T14:20:40;6.10;;;1.10;;
11500;SDS011;5807;51.606;7.624;2022-09-20T14:23:16;3.00;;;1.33;;
11500;SDS011;5807;51.606;7.624;2022-09-20T14:28:32;3.07;;;1.13;;
11500;SDS011;5807;51.606;7.624;2022-09-20T14:31:03;1.77;;;1.00;;
11500;SDS011;5807;51.606;7.624;2022-09-20T14:33:32;3.27;;;1.30;;
11500;SDS011;5807;51.606;7.624;2022-09-20T14:36:09;2.87;;;0.97;;
11500;SDS011;5807;51.606;7.624;2022-09-20T14:38:43;1.80;;;1.20;;
11500;SDS011;5807;51.606;7.624;2022-09-20T14:41:12;3.87;;;1.47;;
11500;SDS011;5807;51.606;7.624;2022-09-20T14:43:39;1.80;;;1.00;;
11500;SDS011;5807;51.606;7.624;2022-09-20T14:46:10;1.40;;;1.17;;
11500;SDS011;5807;51.606;7.624;2022-09-20T14:48:41;1.13;;;1.00;;
11500;SDS011;5807;51.606;7.624;2022-09-20T14:51:19;1.53;;;1.30;;
11500;SDS011;5807;51.606;7.624;2022-09-20T14:53:51;1.30;;;1.20;;
11500;SDS011;5807;51.606;7.624;2022-09-20T14:56:40;0.90;;;0.90;;
11500;SDS011;5807;51.606;7.624;2022-09-20T14:59:20;7.70;;;1.27;;
11500;SDS011;5807;51.606;7.624;2022-09-20T15:01:53;1.90;;;1.03;;
11500;SDS011;5807;51.606;7.624;2022-09-20T15:04:24;1.27;;;1.17;;
11500;SDS011;5807;51.606;7.624;2022-09-20T15:06:53;1.40;;;0.80;;
11500;SDS011;5807;51.606;7.624;2022-09-20T15:09:23;1.20;;;1.10;;
11500;SDS011;5807;51.606;7.624;2022-09-20T15:12:03;1.27;;;0.90;;
11500;SDS011;5807;51.606;7.624;2022-09-20T15:14:34;3.73;;;1.57;;
11500;SDS011;5807;51.606;7.624;2022-09-20T15:17:01;4.10;;;1.47;;
11500;SDS011;5807;51.606;7.624;2022-09-20T15:19:28;5.33;;;1.10;;
11500;SDS011;5807;51.606;7.624;2022-09-20T15:21:55;3.57;;;1.60;;
11500;SDS011;5807;51.606;7.624;2022-09-20T15:24:24;1.57;;;1.10;;
11500;SDS011;5807;51.606;7.624;2022-09-20T15:26:54;1.80;;;1.20;;
11500;SDS011;5807;51.606;7.624;2022-09-20T15:29:39;1.10;;;1.00;;
11500;SDS011;5807;51.606;7.624;2022-09-20T15:32:09;3.07;;;1.57;;
11500;SDS011;5807;51.606;7.624;2022-09-20T15:34:37;1.27;;;1.13;;
11500;SDS011;5807;51.606;7.624;2022-09-20T15:37:07;4.20;;;1.27;;
11500;SDS011;5807;51.606;7.624;2022-09-20T15:39:35;2.83;;;1.47;;
11500;SDS011;5807;51.606;7.624;2022-09-20T15:42:03;2.47;;;1.10;;
11500;SDS011;5807;51.606;7.624;2022-09-20T15:44:36;2.97;;;1.03;;
11500;SDS011;5807;51.606;7.624;2022-09-20T15:47:22;4.67;;;1.70;;
11500;SDS011;5807;51.606;7.624;2022-09-20T15:49:52;2.93;;;1.20;;
11500;SDS011;5807;51.606;7.624;2022-09-20T15:52:19;1.73;;;1.50;;
11500;SDS011;5807;51.606;7.624;2022-09-20T15:54:51;1.53;;;1.43;;
11500;SDS011;5807;51.606;7.624;2022-09-20T15:57:18;1.70;;;1.40;;
11500;SDS011;5807;51.606;7.624;2022-09-20T15:59:45;1.57;;;1.50;;
11500;SDS011;5807;51.606;7.624;2022-09-20T16:02:13;3.10;;;1.40;;
11500;SDS011;5807;51.606;7.624;2022-09-20T16:04:41;5.97;;;1.40;;
11500;SDS011;5807;51.606;7.624;2022-09-20T16:07:08;1.00;;;0.90;;
11500;SDS011;5807;51.606;7.624;2022-09-20T16:09:36;4.10;;;1.60;;
11500;SDS011;5807;51.606;7.624;2022-09-20T16:12:04;2.40;;;1.33;;
11500;SDS011;5807;51.606;7.624;2022-09-20T16:14:32;1.77;;;1.50;;
11500;SDS011;5807;51.606;7.624;2022-09-20T16:16:58;2.43;;;1.70;;
11500;SDS011;5807;51.606;7.624;2022-09-20T16:19:25;3.77;;;2.70;;
11500;SDS011;5807;51.606;7.624;2022-09-20T16:21:51;3.23;;;2.57;;
11500;SDS011;5807;51.606;7.624;2022-09-20T16:24:21;2.43;;;2.20;;
11500;SDS011;5807;51.606;7.624;2022-09-20T16:26:49;2.87;;;1.63;;
11500;SDS011;5807;51.606;7.624;2022-09-20T16:29:17;1.33;;;1.20;;